createdAt,value
2019-01-14T00:00:21.349Z,8.10
2019-01-14T00:01:22.680Z,8.10
2019-01-14T00:02:23.704Z,8.10
2019-01-14T00:03:24.812Z,8.10
2019-01-14T00:04:25.844Z,8.10
2019-01-14T00:05:26.848Z,8.10
2019-01-14T00:06:27.882Z,8.10
2019-01-14T00:07:28.887Z,8.20
2019-01-14T00:08:29.911Z,8.10
2019-01-14T00:09:31.494Z,8.10
2019-01-14T00:10:32.573Z,8.20
2019-01-14T00:11:33.605Z,8.20
2019-01-14T00:12:34.715Z,8.20
2019-01-14T00:13:35.741Z,8.20
2019-01-14T00:14:36.780Z,8.30
2019-01-14T00:15:37.987Z,8.30
2019-01-14T00:16:39.041Z,8.30
2019-01-14T00:17:40.164Z,8.40
2019-01-14T00:18:41.185Z,8.40
2019-01-14T00:19:42.197Z,8.40
2019-01-14T00:20:43.221Z,8.50
2019-01-14T00:21:44.251Z,8.50
2019-01-14T00:22:45.264Z,8.50
2019-01-14T00:23:46.288Z,8.60
2019-01-14T00:24:47.295Z,8.60
2019-01-14T00:25:48.311Z,8.60
2019-01-14T00:26:49.346Z,8.70
2019-01-14T00:27:50.420Z,8.70
2019-01-14T00:28:51.472Z,8.70
2019-01-14T00:29:52.747Z,8.70
2019-01-14T00:30:53.760Z,8.60
2019-01-14T00:31:54.780Z,8.80
2019-01-14T00:32:55.806Z,8.80
2019-01-14T00:33:57.028Z,8.80
2019-01-14T00:34:58.046Z,8.80
2019-01-14T00:35:59.048Z,8.80
2019-01-14T00:37:00.072Z,8.80
2019-01-14T00:38:01.094Z,8.90
2019-01-14T00:39:05.224Z,8.90
2019-01-14T00:40:09.660Z,8.90
2019-01-14T00:41:10.679Z,8.90
2019-01-14T00:42:11.705Z,8.90
2019-01-14T00:43:12.832Z,8.90
2019-01-14T00:44:13.856Z,8.90
2019-01-14T00:45:14.871Z,8.90
2019-01-14T00:46:15.884Z,8.90
2019-01-14T00:47:16.922Z,8.90
2019-01-14T00:48:17.932Z,8.90
2019-01-14T00:49:18.943Z,8.90
2019-01-14T00:50:20.062Z,8.90
2019-01-14T00:51:21.072Z,8.80
2019-01-14T00:52:22.093Z,8.80
2019-01-14T00:53:23.112Z,8.90
2019-01-14T00:54:24.128Z,8.90
2019-01-14T00:55:25.171Z,8.80
2019-01-14T00:56:26.177Z,8.80
2019-01-14T00:57:27.204Z,8.80
2019-01-14T00:58:28.217Z,8.80
2019-01-14T00:59:29.342Z,8.80
2019-01-14T01:00:30.373Z,8.80
2019-01-14T01:01:31.388Z,8.80
2019-01-14T01:02:32.419Z,8.80
2019-01-14T01:03:33.444Z,8.80
2019-01-14T01:04:34.461Z,8.80
2019-01-14T01:05:35.480Z,8.80
2019-01-14T01:06:36.512Z,8.80
2019-01-14T01:07:37.674Z,8.70
2019-01-14T01:08:38.757Z,8.70
2019-01-14T01:09:39.782Z,8.70
2019-01-14T01:10:40.788Z,8.70
2019-01-14T01:11:41.814Z,8.70
2019-01-14T01:12:42.933Z,8.70
2019-01-14T01:13:43.948Z,8.70
2019-01-14T01:14:44.959Z,8.70
2019-01-14T01:15:46.076Z,8.70
2019-01-14T01:16:47.112Z,8.60
2019-01-14T01:17:48.139Z,8.60
2019-01-14T01:18:49.170Z,8.60
2019-01-14T01:19:50.167Z,8.60
2019-01-14T01:20:51.192Z,8.70
2019-01-14T01:21:52.196Z,8.70
2019-01-14T01:22:53.227Z,8.70
2019-01-14T01:23:54.344Z,8.70
2019-01-14T01:24:55.368Z,8.70
2019-01-14T01:25:56.385Z,8.80
2019-01-14T01:26:57.409Z,8.80
2019-01-14T01:27:58.436Z,8.80
2019-01-14T01:28:59.452Z,8.80
2019-01-14T01:30:00.479Z,8.80
2019-01-14T01:31:01.505Z,8.80
2019-01-14T01:32:02.513Z,8.80
2019-01-14T01:33:03.537Z,8.80
2019-01-14T01:34:04.549Z,8.80
2019-01-14T01:35:07.974Z,8.80
2019-01-14T01:36:09.095Z,8.70
2019-01-14T01:37:10.113Z,8.70
2019-01-14T01:38:11.189Z,8.70
2019-01-14T01:39:12.197Z,8.70
2019-01-14T01:40:15.513Z,8.70
2019-01-14T01:41:16.526Z,8.70
2019-01-14T01:42:17.541Z,8.70
2019-01-14T01:43:18.575Z,8.70
2019-01-14T01:44:19.588Z,8.70
2019-01-14T01:45:20.612Z,8.70
2019-01-14T01:46:21.629Z,8.80
2019-01-14T01:47:22.644Z,8.70
2019-01-14T01:48:23.677Z,8.70
2019-01-14T01:49:24.695Z,8.70
2019-01-14T01:50:25.716Z,8.60
2019-01-14T01:51:26.729Z,8.60
2019-01-14T01:52:27.736Z,8.60
2019-01-14T01:53:28.760Z,8.50
2019-01-14T01:54:29.790Z,8.50
2019-01-14T01:55:30.808Z,8.50
2019-01-14T01:56:31.833Z,8.50
2019-01-14T01:57:32.862Z,8.50
2019-01-14T01:58:33.892Z,8.50
2019-01-14T01:59:34.915Z,8.50
2019-01-14T02:00:35.932Z,8.50
2019-01-14T02:01:36.951Z,8.50
2019-01-14T02:02:37.960Z,8.50
2019-01-14T02:03:38.992Z,8.50
2019-01-14T02:04:40.011Z,8.50
2019-01-14T02:05:41.027Z,8.50
2019-01-14T02:06:42.048Z,8.50
2019-01-14T02:07:43.231Z,8.50
2019-01-14T02:08:44.248Z,8.50
2019-01-14T02:09:45.258Z,8.40
2019-01-14T02:10:46.280Z,8.40
2019-01-14T02:11:47.297Z,8.40
2019-01-14T02:12:48.518Z,8.40
2019-01-14T02:13:49.840Z,8.40
2019-01-14T02:14:50.875Z,8.40
2019-01-14T02:15:51.870Z,8.40
2019-01-14T02:16:53.000Z,8.50
2019-01-14T02:17:54.034Z,8.50
2019-01-14T02:18:55.064Z,8.50
2019-01-14T02:19:56.072Z,8.40
2019-01-14T02:20:57.096Z,8.40
2019-01-14T02:21:58.115Z,8.40
2019-01-14T02:22:59.145Z,8.30
2019-01-14T02:24:00.165Z,8.30
2019-01-14T02:25:01.185Z,8.30
2019-01-14T02:26:02.195Z,8.30
2019-01-14T02:27:03.215Z,8.30
2019-01-14T02:28:04.235Z,8.30
2019-01-14T02:29:05.255Z,8.30
2019-01-14T02:30:15.301Z,8.20
2019-01-14T02:31:16.328Z,8.30
2019-01-14T02:32:17.339Z,8.20
2019-01-14T02:33:18.392Z,8.20
2019-01-14T02:34:19.408Z,8.20
2019-01-14T02:35:20.435Z,8.20
2019-01-14T02:36:21.452Z,8.20
2019-01-14T02:37:22.470Z,8.30
2019-01-14T02:38:23.493Z,8.30
2019-01-14T02:39:24.509Z,8.20
2019-01-14T02:40:25.524Z,8.20
2019-01-14T02:41:26.544Z,8.20
2019-01-14T02:42:27.561Z,8.20
2019-01-14T02:43:28.587Z,8.20
2019-01-14T02:44:29.604Z,8.20
2019-01-14T02:45:30.628Z,8.20
2019-01-14T02:46:31.632Z,8.20
2019-01-14T02:47:32.661Z,8.20
2019-01-14T02:48:33.692Z,8.20
2019-01-14T02:49:34.700Z,8.20
2019-01-14T02:50:35.979Z,8.20
2019-01-14T02:51:56.973Z,8.20
2019-01-14T02:52:57.981Z,8.20
2019-01-14T02:53:59.004Z,8.20
2019-01-14T02:55:00.036Z,8.20
2019-01-14T02:56:01.070Z,8.20
2019-01-14T02:57:02.092Z,8.30
2019-01-14T02:58:03.108Z,8.30
2019-01-14T02:59:04.240Z,8.30
2019-01-14T03:00:23.101Z,8.30
2019-01-14T03:01:24.105Z,8.20
2019-01-14T03:02:25.120Z,8.20
2019-01-14T03:03:26.159Z,8.30
2019-01-14T03:04:27.182Z,8.30
2019-01-14T03:05:28.192Z,8.30
2019-01-14T03:06:29.323Z,8.30
2019-01-14T03:07:30.328Z,8.30
2019-01-14T03:08:31.350Z,8.30
2019-01-14T03:09:32.365Z,8.30
2019-01-14T03:10:33.399Z,8.40
2019-01-14T03:11:34.404Z,8.40
2019-01-14T03:12:35.421Z,8.40
2019-01-14T03:13:36.521Z,8.40
2019-01-14T03:14:37.611Z,8.40
2019-01-14T03:15:38.630Z,8.40
2019-01-14T03:16:39.644Z,8.40
2019-01-14T03:17:40.664Z,8.40
2019-01-14T03:18:42.249Z,8.40
2019-01-14T03:19:43.266Z,8.50
2019-01-14T03:20:44.280Z,8.40
2019-01-14T03:21:45.296Z,8.40
2019-01-14T03:22:46.315Z,8.40
2019-01-14T03:23:47.337Z,8.40
2019-01-14T03:24:48.373Z,8.40
2019-01-14T03:25:57.773Z,8.40
2019-01-14T03:26:52.436Z,8.40
2019-01-14T03:27:53.470Z,8.50
2019-01-14T03:28:54.499Z,8.40
2019-01-14T03:29:55.528Z,8.40
2019-01-14T03:30:56.557Z,8.40
2019-01-14T03:31:57.578Z,8.40
2019-01-14T03:32:58.594Z,8.40
2019-01-14T03:33:59.616Z,8.50
2019-01-14T03:35:00.736Z,8.50
2019-01-14T03:36:01.863Z,8.50
2019-01-14T03:37:05.647Z,8.50
2019-01-14T03:38:06.021Z,8.50
2019-01-14T03:39:07.141Z,8.50
2019-01-14T03:40:11.057Z,8.50
2019-01-14T03:41:12.088Z,8.50
2019-01-14T03:42:13.109Z,8.50
2019-01-14T03:43:14.120Z,8.40
2019-01-14T03:44:15.175Z,8.40
2019-01-14T03:45:16.391Z,8.40
2019-01-14T03:46:17.408Z,8.50
2019-01-14T03:47:18.440Z,8.50
2019-01-14T03:48:19.441Z,8.50
2019-01-14T03:49:20.465Z,8.40
2019-01-14T03:50:21.987Z,8.40
2019-01-14T03:51:23.005Z,8.40
2019-01-14T03:52:24.051Z,8.40
2019-01-14T03:53:25.065Z,8.40
2019-01-14T03:54:26.798Z,8.40
2019-01-14T03:55:27.835Z,8.30
2019-01-14T03:56:28.844Z,8.30
2019-01-14T03:57:29.952Z,8.30
2019-01-14T03:58:30.978Z,8.30
2019-01-14T03:59:32.020Z,8.30
2019-01-14T04:00:33.036Z,8.30
2019-01-14T04:01:34.123Z,8.30
2019-01-14T04:02:35.149Z,8.30
2019-01-14T04:03:36.225Z,8.30
2019-01-14T04:04:37.350Z,8.30
2019-01-14T04:05:38.389Z,8.30
2019-01-14T04:06:39.422Z,8.30
2019-01-14T04:07:40.533Z,8.30
2019-01-14T04:08:41.544Z,8.30
2019-01-14T04:09:42.574Z,8.30
2019-01-14T04:10:43.597Z,8.30
2019-01-14T04:11:44.601Z,8.30
2019-01-14T04:12:45.719Z,8.30
2019-01-14T04:13:46.750Z,8.20
2019-01-14T04:14:47.780Z,8.30
2019-01-14T04:15:48.788Z,8.30
2019-01-14T04:16:49.815Z,8.30
2019-01-14T04:17:50.833Z,8.30
2019-01-14T04:18:51.965Z,8.30
2019-01-14T04:19:53.020Z,8.30
2019-01-14T04:20:54.018Z,8.40
2019-01-14T04:21:55.034Z,8.40
2019-01-14T04:22:56.052Z,8.40
2019-01-14T04:23:57.072Z,8.50
2019-01-14T04:24:58.100Z,8.40
2019-01-14T04:25:59.114Z,8.50
2019-01-14T04:27:00.138Z,8.50
2019-01-14T04:28:01.166Z,8.50
2019-01-14T04:29:02.280Z,8.50
2019-01-14T04:30:07.122Z,8.50
2019-01-14T04:31:08.148Z,8.50
2019-01-14T04:32:09.156Z,8.50
2019-01-14T04:33:10.170Z,8.60
2019-01-14T04:34:11.246Z,8.60
2019-01-14T04:35:12.768Z,8.60
2019-01-14T04:36:13.801Z,8.60
2019-01-14T04:37:21.520Z,8.50
2019-01-14T04:38:17.749Z,8.50
2019-01-14T04:39:18.861Z,8.50
2019-01-14T04:40:19.887Z,8.50
2019-01-14T04:41:20.900Z,8.50
2019-01-14T04:42:21.929Z,8.60
2019-01-14T04:43:23.257Z,8.60
2019-01-14T04:44:24.264Z,8.60
2019-01-14T04:45:25.286Z,8.50
2019-01-14T04:46:26.301Z,8.50
2019-01-14T04:47:27.330Z,8.50
2019-01-14T04:48:28.360Z,8.40
2019-01-14T04:49:29.375Z,8.40
2019-01-14T04:50:30.405Z,8.40
2019-01-14T04:51:31.425Z,8.50
2019-01-14T04:52:32.438Z,8.40
2019-01-14T04:53:33.463Z,8.40
2019-01-14T04:54:34.472Z,8.40
2019-01-14T04:55:35.513Z,8.30
2019-01-14T04:56:36.607Z,8.30
2019-01-14T04:57:37.637Z,8.30
2019-01-14T04:58:38.655Z,8.30
2019-01-14T04:59:39.677Z,8.40
2019-01-14T05:00:40.730Z,8.30
2019-01-14T05:01:41.752Z,8.30
2019-01-14T05:02:42.792Z,8.30
2019-01-14T05:03:44.749Z,8.30
2019-01-14T05:04:45.936Z,8.30
2019-01-14T05:05:46.968Z,8.30
2019-01-14T05:06:47.993Z,8.30
2019-01-14T05:07:49.106Z,8.30
2019-01-14T05:08:50.123Z,8.30
2019-01-14T05:09:51.139Z,8.40
2019-01-14T05:10:52.168Z,8.40
2019-01-14T05:11:53.188Z,8.30
2019-01-14T05:12:54.216Z,8.30
2019-01-14T05:13:55.231Z,8.30
2019-01-14T05:14:56.256Z,8.30
2019-01-14T05:15:57.299Z,8.40
2019-01-14T05:16:58.317Z,8.40
2019-01-14T05:17:59.345Z,8.40
2019-01-14T05:19:00.360Z,8.40
2019-01-14T05:20:03.397Z,8.40
2019-01-14T05:21:04.429Z,8.40
2019-01-14T05:22:05.454Z,8.40
2019-01-14T05:23:06.480Z,8.40
2019-01-14T05:24:07.497Z,8.40
2019-01-14T05:25:08.724Z,8.50
2019-01-14T05:26:09.748Z,8.40
2019-01-14T05:27:10.767Z,8.50
2019-01-14T05:28:11.772Z,8.50
2019-01-14T05:29:12.784Z,8.50
2019-01-14T05:30:15.908Z,8.50
2019-01-14T05:31:17.770Z,8.50
2019-01-14T05:32:18.784Z,8.50
2019-01-14T05:33:19.800Z,8.50
2019-01-14T05:34:20.826Z,8.50
2019-01-14T05:35:21.836Z,8.60
2019-01-14T05:36:22.867Z,8.60
2019-01-14T05:37:23.885Z,8.60
2019-01-14T05:38:24.907Z,8.70
2019-01-14T05:39:25.912Z,8.60
2019-01-14T05:40:26.934Z,8.70
2019-01-14T05:41:27.966Z,8.60
2019-01-14T05:42:28.979Z,8.70
2019-01-14T05:43:30.008Z,8.70
2019-01-14T05:44:31.036Z,8.70
2019-01-14T05:45:32.059Z,8.70
2019-01-14T05:46:33.171Z,8.70
2019-01-14T05:47:34.188Z,8.70
2019-01-14T05:48:35.201Z,8.70
2019-01-14T05:49:36.249Z,8.70
2019-01-14T05:50:37.350Z,8.70
2019-01-14T05:51:38.377Z,8.70
2019-01-14T05:52:39.500Z,8.70
2019-01-14T05:53:40.516Z,8.70
2019-01-14T05:54:41.544Z,8.70
2019-01-14T05:55:42.570Z,8.70
2019-01-14T05:56:43.589Z,8.70
2019-01-14T05:57:44.608Z,8.70
2019-01-14T05:58:45.619Z,8.70
2019-01-14T05:59:46.638Z,8.60
2019-01-14T06:00:47.754Z,8.60
2019-01-14T06:01:48.771Z,8.60
2019-01-14T06:02:49.892Z,8.60
2019-01-14T06:03:50.926Z,8.50
2019-01-14T06:04:52.211Z,8.50
2019-01-14T06:05:53.224Z,8.50
2019-01-14T06:06:54.257Z,8.50
2019-01-14T06:07:55.272Z,8.50
2019-01-14T06:08:56.289Z,8.50
2019-01-14T06:09:57.301Z,8.50
2019-01-14T06:10:58.329Z,8.40
2019-01-14T06:11:59.353Z,8.40
2019-01-14T06:13:00.368Z,8.40
2019-01-14T06:14:01.476Z,8.40
2019-01-14T06:15:06.092Z,8.40
2019-01-14T06:16:07.142Z,8.40
2019-01-14T06:17:08.178Z,8.40
2019-01-14T06:18:09.192Z,8.40
2019-01-14T06:19:10.220Z,8.40
2019-01-14T06:20:14.548Z,8.40
2019-01-14T06:21:15.571Z,8.40
2019-01-14T06:22:16.601Z,8.40
2019-01-14T06:23:17.631Z,8.40
2019-01-14T06:24:18.636Z,8.40
2019-01-14T06:25:19.658Z,8.30
2019-01-14T06:26:20.680Z,8.30
2019-01-14T06:27:21.727Z,8.30
2019-01-14T06:28:22.752Z,8.30
2019-01-14T06:29:23.769Z,8.20
2019-01-14T06:30:27.201Z,8.20
2019-01-14T06:31:28.216Z,8.20
2019-01-14T06:32:29.245Z,8.30
2019-01-14T06:33:30.264Z,8.30
2019-01-14T06:34:31.291Z,8.30
2019-01-14T06:35:32.408Z,8.30
2019-01-14T06:36:33.420Z,8.20
2019-01-14T06:37:34.460Z,8.20
2019-01-14T06:38:35.475Z,8.20
2019-01-14T06:39:36.565Z,8.30
2019-01-14T06:40:37.579Z,8.30
2019-01-14T06:41:38.607Z,8.20
2019-01-14T06:42:39.653Z,8.20
2019-01-14T06:43:40.687Z,8.20
2019-01-14T06:44:41.720Z,8.20
2019-01-14T06:45:42.729Z,8.10
2019-01-14T06:46:43.739Z,8.10
2019-01-14T06:47:44.874Z,8.10
2019-01-14T06:48:45.880Z,8.00
2019-01-14T06:49:46.900Z,8.00
2019-01-14T06:50:47.919Z,8.00
2019-01-14T06:51:48.928Z,7.90
2019-01-14T06:52:50.055Z,8.00
2019-01-14T06:53:51.067Z,8.00
2019-01-14T06:54:52.087Z,8.00
2019-01-14T06:55:53.104Z,7.90
2019-01-14T06:56:54.135Z,7.90
2019-01-14T06:57:55.190Z,7.90
2019-01-14T06:58:56.201Z,7.90
2019-01-14T06:59:57.216Z,8.00
2019-01-14T07:00:58.229Z,8.00
2019-01-14T07:01:59.250Z,8.00
2019-01-14T07:03:00.282Z,8.10
2019-01-14T07:04:01.396Z,8.10
2019-01-14T07:05:04.725Z,8.10
2019-01-14T07:06:05.741Z,8.10
2019-01-14T07:07:06.876Z,8.10
2019-01-14T07:08:07.916Z,8.20
2019-01-14T07:09:09.076Z,8.10
2019-01-14T07:10:13.896Z,8.10
2019-01-14T07:11:15.020Z,8.10
2019-01-14T07:12:16.033Z,8.10
2019-01-14T07:13:17.054Z,8.10
2019-01-14T07:14:18.074Z,8.10
2019-01-14T07:15:19.198Z,8.20
2019-01-14T07:16:20.236Z,8.10
2019-01-14T07:17:21.240Z,8.10
2019-01-14T07:18:22.512Z,8.10
2019-01-14T07:19:23.540Z,8.10
2019-01-14T07:20:24.650Z,8.10
2019-01-14T07:21:25.669Z,8.10
2019-01-14T07:22:26.689Z,8.10
2019-01-14T07:23:27.741Z,8.10
2019-01-14T07:24:28.757Z,8.10
2019-01-14T07:25:29.780Z,8.10
2019-01-14T07:26:31.000Z,8.10
2019-01-14T07:27:32.020Z,8.10
2019-01-14T07:28:33.040Z,8.10
2019-01-14T07:29:34.057Z,8.10
2019-01-14T07:30:35.072Z,8.10
2019-01-14T07:31:36.099Z,8.10
2019-01-14T07:32:37.168Z,8.00
2019-01-14T07:33:38.197Z,8.00
2019-01-14T07:34:39.211Z,8.00
2019-01-14T07:35:40.221Z,8.10
2019-01-14T07:36:41.238Z,8.00
2019-01-14T07:37:42.650Z,8.00
2019-01-14T07:38:43.703Z,8.00
2019-01-14T07:39:44.748Z,8.00
2019-01-14T07:40:45.751Z,8.00
2019-01-14T07:41:46.775Z,8.00
2019-01-14T07:42:47.775Z,8.00
2019-01-14T07:43:48.811Z,8.00
2019-01-14T07:44:49.844Z,8.00
2019-01-14T07:45:51.915Z,8.00
2019-01-14T07:46:53.079Z,8.00
2019-01-14T07:47:54.097Z,8.00
2019-01-14T07:48:55.132Z,8.10
2019-01-14T07:49:56.149Z,8.10
2019-01-14T07:50:57.155Z,8.10
2019-01-14T07:51:58.168Z,8.10
2019-01-14T07:52:59.181Z,8.10
2019-01-14T07:54:00.203Z,8.20
2019-01-14T07:55:01.315Z,8.10
2019-01-14T07:56:02.351Z,8.20
2019-01-14T07:57:03.372Z,8.20
2019-01-14T07:58:04.519Z,8.20
2019-01-14T07:59:05.620Z,8.20
2019-01-14T08:00:10.440Z,8.20
2019-01-14T08:01:11.564Z,8.20
2019-01-14T08:02:12.576Z,8.20
2019-01-14T08:03:13.588Z,8.20
2019-01-14T08:04:14.621Z,8.20
2019-01-14T08:05:15.668Z,8.20
2019-01-14T08:06:16.776Z,8.20
2019-01-14T08:07:18.197Z,8.20
2019-01-14T08:08:19.222Z,8.20
2019-01-14T08:09:20.245Z,8.20
2019-01-14T08:10:21.281Z,8.20
2019-01-14T08:11:22.303Z,8.20
2019-01-14T08:12:23.346Z,8.20
2019-01-14T08:13:24.372Z,8.20
2019-01-14T08:14:25.408Z,8.20
2019-01-14T08:15:26.436Z,8.20
2019-01-14T08:16:27.446Z,8.20
2019-01-14T08:17:28.467Z,8.20
2019-01-14T08:18:29.479Z,8.20
2019-01-14T08:19:30.563Z,8.20
2019-01-14T08:20:31.664Z,8.10
2019-01-14T08:21:32.689Z,8.10
2019-01-14T08:22:33.694Z,8.10
2019-01-14T08:23:34.722Z,8.00
2019-01-14T08:24:35.756Z,8.00
2019-01-14T08:25:37.539Z,7.90
2019-01-14T08:26:38.639Z,7.90
2019-01-14T08:27:39.673Z,7.90
2019-01-14T08:28:40.768Z,8.00
2019-01-14T08:29:41.821Z,8.00
2019-01-14T08:30:42.830Z,8.00
2019-01-14T08:31:43.850Z,7.90
2019-01-14T08:32:45.134Z,8.00
2019-01-14T08:33:46.241Z,8.00
2019-01-14T08:34:47.270Z,7.90
2019-01-14T08:35:48.280Z,7.90
2019-01-14T08:36:49.295Z,7.90
2019-01-14T08:37:50.321Z,8.00
2019-01-14T08:38:51.355Z,7.90
2019-01-14T08:39:52.386Z,7.90
2019-01-14T08:40:53.495Z,7.90
2019-01-14T08:41:56.120Z,8.00
2019-01-14T08:42:57.141Z,8.00
2019-01-14T08:44:00.060Z,8.10
2019-01-14T08:45:01.109Z,8.10
2019-01-14T08:46:02.821Z,8.20
2019-01-14T08:47:03.834Z,8.20
2019-01-14T08:48:04.852Z,8.30
2019-01-14T08:49:05.873Z,8.30
2019-01-14T08:50:10.236Z,8.30
2019-01-14T08:51:11.253Z,8.40
2019-01-14T08:52:12.261Z,8.40
2019-01-14T08:53:13.284Z,8.40
2019-01-14T08:54:14.306Z,8.40
2019-01-14T08:55:15.344Z,8.30
2019-01-14T08:56:16.417Z,8.30
2019-01-14T08:57:17.484Z,8.30
2019-01-14T08:58:18.520Z,8.30
2019-01-14T08:59:19.526Z,8.30
2019-01-14T09:00:21.044Z,8.30
2019-01-14T09:01:22.056Z,8.30
2019-01-14T09:02:23.072Z,8.30
2019-01-14T09:03:24.083Z,8.30
2019-01-14T09:04:32.201Z,8.40
2019-01-14T09:05:28.024Z,8.30
2019-01-14T09:06:29.051Z,8.40
2019-01-14T09:07:30.205Z,8.30
2019-01-14T09:08:31.208Z,8.50
2019-01-14T09:09:32.228Z,8.40
2019-01-14T09:10:33.258Z,8.40
2019-01-14T09:11:34.272Z,8.40
2019-01-14T09:12:35.319Z,8.40
2019-01-14T09:13:36.369Z,8.40
2019-01-14T09:14:37.388Z,8.40
2019-01-14T09:15:38.413Z,8.40
2019-01-14T09:16:39.431Z,8.40
2019-01-14T09:17:40.555Z,8.40
2019-01-14T09:18:41.580Z,8.40
2019-01-14T09:19:42.613Z,8.40
2019-01-14T09:20:43.628Z,8.30
2019-01-14T09:21:44.676Z,8.30
2019-01-14T09:22:45.893Z,8.30
2019-01-14T09:23:46.925Z,8.30
2019-01-14T09:24:47.955Z,8.30
2019-01-14T09:25:53.796Z,8.30
2019-01-14T09:26:51.914Z,8.30
2019-01-14T09:27:52.936Z,8.30
2019-01-14T09:28:53.954Z,8.30
2019-01-14T09:29:54.986Z,8.30
2019-01-14T09:30:56.000Z,8.30
2019-01-14T09:31:57.228Z,8.30
2019-01-14T09:32:58.261Z,8.30
2019-01-14T09:33:59.680Z,8.30
2019-01-14T09:35:00.697Z,8.40
2019-01-14T09:36:01.724Z,8.40
2019-01-14T09:37:02.739Z,8.40
2019-01-14T09:38:03.764Z,8.40
2019-01-14T09:39:06.720Z,8.40
2019-01-14T09:40:16.427Z,8.40
2019-01-14T09:41:17.443Z,8.30
2019-01-14T09:42:18.462Z,8.30
2019-01-14T09:43:19.479Z,8.40
2019-01-14T09:44:20.496Z,8.40
2019-01-14T09:45:21.543Z,8.40
2019-01-14T09:46:22.560Z,8.40
2019-01-14T09:47:23.580Z,8.30
2019-01-14T09:48:24.615Z,8.30
2019-01-14T09:49:25.628Z,8.20
2019-01-14T09:50:26.677Z,8.20
2019-01-14T09:51:27.712Z,8.30
2019-01-14T09:52:28.736Z,8.30
2019-01-14T09:53:29.759Z,8.30
2019-01-14T09:54:30.782Z,8.30
2019-01-14T09:55:31.915Z,8.40
2019-01-14T09:56:32.923Z,8.40
2019-01-14T09:57:34.758Z,8.40
2019-01-14T09:58:35.959Z,8.40
2019-01-14T09:59:37.040Z,8.40
2019-01-14T10:00:38.072Z,8.40
2019-01-14T10:01:39.077Z,8.40
2019-01-14T10:02:40.288Z,8.50
2019-01-14T10:03:41.308Z,8.50
2019-01-14T10:04:42.556Z,8.50
2019-01-14T10:05:43.585Z,8.50
2019-01-14T10:06:44.597Z,8.50
2019-01-14T10:07:45.621Z,8.50
2019-01-14T10:08:46.627Z,8.50
2019-01-14T10:09:47.636Z,8.50
2019-01-14T10:10:48.670Z,8.50
2019-01-14T10:11:49.697Z,8.50
2019-01-14T10:12:50.748Z,8.50
2019-01-14T10:13:51.761Z,8.40
2019-01-14T10:14:52.796Z,8.40
2019-01-14T10:15:53.819Z,8.40
2019-01-14T10:16:55.348Z,8.30
2019-01-14T10:17:58.265Z,8.30
2019-01-14T10:18:59.379Z,8.30
2019-01-14T10:20:00.612Z,8.30
2019-01-14T10:21:01.647Z,8.20
2019-01-14T10:22:02.770Z,8.20
2019-01-14T10:23:03.783Z,8.20
2019-01-14T10:24:04.796Z,8.20
2019-01-14T10:25:07.933Z,8.30
2019-01-14T10:26:09.753Z,8.20
2019-01-14T10:27:10.761Z,8.30
2019-01-14T10:28:11.780Z,8.30
2019-01-14T10:29:12.795Z,8.30
2019-01-14T10:30:18.467Z,8.20
2019-01-14T10:31:20.019Z,8.20
2019-01-14T10:32:21.214Z,8.20
2019-01-14T10:33:22.243Z,8.30
2019-01-14T10:34:23.249Z,8.20
2019-01-14T10:35:24.280Z,8.20
2019-01-14T10:36:25.299Z,8.30
2019-01-14T10:37:26.323Z,8.30
2019-01-14T10:38:27.356Z,8.40
2019-01-14T10:39:28.379Z,8.40
2019-01-14T10:40:29.418Z,8.40
2019-01-14T10:41:30.425Z,8.40
2019-01-14T10:42:31.456Z,8.40
2019-01-14T10:43:32.472Z,8.30
2019-01-14T10:44:33.496Z,8.30
2019-01-14T10:45:34.512Z,8.30
2019-01-14T10:46:35.540Z,8.30
2019-01-14T10:47:36.587Z,8.30
2019-01-14T10:48:37.592Z,8.20
2019-01-14T10:49:38.612Z,8.20
2019-01-14T10:50:39.645Z,8.20
2019-01-14T10:51:40.664Z,8.10
2019-01-14T10:52:41.787Z,8.10
2019-01-14T10:53:42.996Z,8.10
2019-01-14T10:54:44.013Z,8.10
2019-01-14T10:55:45.044Z,8.10
2019-01-14T10:56:46.064Z,8.00
2019-01-14T10:57:47.187Z,8.00
2019-01-14T10:58:48.220Z,8.10
2019-01-14T10:59:49.240Z,8.10
2019-01-14T11:00:50.298Z,8.10
2019-01-14T11:01:51.304Z,8.10
2019-01-14T11:02:52.319Z,8.10
2019-01-14T11:03:53.336Z,8.10
2019-01-14T11:04:54.456Z,8.10
2019-01-14T11:05:55.484Z,8.10
2019-01-14T11:06:56.497Z,8.10
2019-01-14T11:07:57.807Z,8.00
2019-01-14T11:09:05.687Z,8.10
2019-01-14T11:10:04.656Z,8.10
2019-01-14T11:11:05.680Z,8.10
2019-01-14T11:12:07.002Z,8.00
2019-01-14T11:13:08.060Z,8.00
2019-01-14T11:14:09.137Z,8.00
2019-01-14T11:15:13.060Z,8.10
2019-01-14T11:16:14.088Z,8.10
2019-01-14T11:17:15.100Z,8.10
2019-01-14T11:18:16.124Z,8.00
2019-01-14T11:19:17.143Z,8.00
2019-01-14T11:20:23.436Z,8.00
2019-01-14T11:21:24.455Z,8.10
2019-01-14T11:22:25.471Z,8.00
2019-01-14T11:23:26.488Z,8.00
2019-01-14T11:24:31.528Z,8.00
2019-01-14T11:25:32.561Z,7.90
2019-01-14T11:26:33.584Z,7.90
2019-01-14T11:27:34.600Z,8.00
2019-01-14T11:28:35.632Z,8.00
2019-01-14T11:29:38.548Z,8.00
2019-01-14T11:30:39.588Z,8.00
2019-01-14T11:31:40.613Z,8.00
2019-01-14T11:32:41.627Z,8.00
2019-01-14T11:33:42.644Z,8.10
2019-01-14T11:34:45.161Z,8.10
2019-01-14T11:35:46.193Z,8.00
2019-01-14T11:36:47.218Z,8.00
2019-01-14T11:37:48.227Z,8.00
2019-01-14T11:38:49.353Z,8.00
2019-01-14T11:39:50.393Z,8.10
2019-01-14T11:40:51.412Z,8.10
2019-01-14T11:41:52.444Z,8.10
2019-01-14T11:42:53.470Z,8.20
2019-01-14T11:43:54.483Z,8.20
2019-01-14T11:44:55.500Z,8.10
2019-01-14T11:45:56.532Z,8.10
2019-01-14T11:46:57.560Z,8.10
2019-01-14T11:47:58.591Z,8.10
2019-01-14T11:48:59.615Z,8.10
2019-01-14T11:50:00.695Z,8.20
2019-01-14T11:51:01.773Z,8.20
2019-01-14T11:52:02.787Z,8.30
2019-01-14T11:53:03.805Z,8.30
2019-01-14T11:54:04.828Z,8.30
2019-01-14T11:55:07.444Z,8.30
2019-01-14T11:56:08.489Z,8.30
2019-01-14T11:57:09.501Z,8.30
2019-01-14T11:58:10.526Z,8.30
2019-01-14T11:59:11.545Z,8.30
2019-01-14T12:00:16.375Z,8.20
2019-01-14T12:01:17.407Z,8.30
2019-01-14T12:02:18.433Z,8.30
2019-01-14T12:03:19.447Z,8.30
2019-01-14T12:04:20.475Z,8.20
2019-01-14T12:05:21.505Z,8.20
2019-01-14T12:06:22.529Z,8.20
2019-01-14T12:07:23.544Z,8.30
2019-01-14T12:08:24.676Z,8.30
2019-01-14T12:09:25.703Z,8.30
2019-01-14T12:10:26.743Z,8.30
2019-01-14T12:11:27.771Z,8.30
2019-01-14T12:12:28.788Z,8.30
2019-01-14T12:13:29.804Z,8.30
2019-01-14T12:14:30.831Z,8.30
2019-01-14T12:15:31.844Z,8.30
2019-01-14T12:16:32.868Z,8.30
2019-01-14T12:17:33.888Z,8.30
2019-01-14T12:18:34.912Z,8.30
2019-01-14T12:19:35.935Z,8.30
2019-01-14T12:20:36.958Z,8.40
2019-01-14T12:21:37.984Z,8.30
2019-01-14T12:22:39.232Z,8.40
2019-01-14T12:23:40.772Z,8.40
2019-01-14T12:24:41.776Z,8.40
2019-01-14T12:25:42.808Z,8.40
2019-01-14T12:26:43.841Z,8.50
2019-01-14T12:27:44.964Z,8.40
2019-01-14T12:28:45.976Z,8.50
2019-01-14T12:29:47.008Z,8.60
2019-01-14T12:30:48.034Z,8.60
2019-01-14T12:31:49.067Z,8.70
2019-01-14T12:32:50.076Z,8.70
2019-01-14T12:33:51.104Z,8.70
2019-01-14T12:34:52.207Z,8.80
2019-01-14T12:35:53.263Z,8.80
2019-01-14T12:36:54.304Z,8.80
2019-01-14T12:37:55.338Z,8.80
2019-01-14T12:38:56.392Z,8.70
2019-01-14T12:39:57.412Z,8.80
2019-01-14T12:40:58.424Z,8.70
2019-01-14T12:41:59.461Z,8.70
2019-01-14T12:43:00.473Z,8.80
2019-01-14T12:44:01.490Z,8.70
2019-01-14T12:45:05.112Z,8.70
2019-01-14T12:46:06.128Z,8.70
2019-01-14T12:47:07.148Z,8.70
2019-01-14T12:48:08.174Z,8.70
2019-01-14T12:49:09.195Z,8.60
2019-01-14T12:50:12.916Z,8.60
2019-01-14T12:51:13.928Z,8.60
2019-01-14T12:52:14.952Z,8.60
2019-01-14T12:53:15.970Z,8.60
2019-01-14T12:54:16.988Z,8.70
2019-01-14T12:55:18.412Z,8.70
2019-01-14T12:56:19.428Z,8.80
2019-01-14T12:57:20.460Z,8.80
2019-01-14T12:58:21.474Z,8.80
2019-01-14T12:59:22.493Z,8.80
2019-01-14T13:00:28.258Z,8.80
2019-01-14T13:01:29.267Z,8.90
2019-01-14T13:02:30.296Z,8.90
2019-01-14T13:03:31.309Z,9.00
2019-01-14T13:04:32.333Z,9.00
2019-01-14T13:05:33.343Z,9.00
2019-01-14T13:06:34.364Z,8.90
2019-01-14T13:07:35.389Z,8.90
2019-01-14T13:08:36.453Z,8.80
2019-01-14T13:09:38.542Z,8.80
2019-01-14T13:10:39.688Z,8.80
2019-01-14T13:11:40.705Z,8.80
2019-01-14T13:12:41.836Z,8.80
2019-01-14T13:13:42.856Z,8.80
2019-01-14T13:14:43.876Z,8.60
2019-01-14T13:15:44.892Z,8.50
2019-01-14T13:16:45.908Z,8.40
2019-01-14T13:17:47.436Z,8.30
2019-01-14T13:18:48.564Z,8.20
2019-01-14T13:19:49.576Z,8.00
2019-01-14T13:20:50.601Z,7.80
2019-01-14T13:21:51.619Z,7.60
2019-01-14T13:22:52.644Z,7.50
2019-01-14T13:23:53.656Z,7.40
2019-01-14T13:24:54.680Z,7.30
2019-01-14T13:25:55.692Z,7.30
2019-01-14T13:26:56.716Z,7.30
2019-01-14T13:27:57.742Z,7.30
2019-01-14T13:28:58.760Z,7.20
2019-01-14T13:29:59.780Z,7.20
2019-01-14T13:31:00.801Z,7.10
2019-01-14T13:32:01.909Z,7.10
2019-01-14T13:33:03.852Z,7.10
2019-01-14T13:34:05.064Z,7.10
2019-01-14T13:35:06.536Z,7.10